createdAt,value
2016-04-18T00:02:47.295Z,1011.49
2016-04-18T00:05:59.240Z,1011.39
2016-04-18T00:09:09.279Z,1011.39
2016-04-18T00:12:20.990Z,1011.39
2016-04-18T00:15:37.254Z,1011.39
2016-04-18T00:18:44.327Z,1011.39
2016-04-18T00:21:47.411Z,1011.37
2016-04-18T00:24:59.258Z,1011.37
2016-04-18T00:28:11.064Z,1011.47
2016-04-18T00:31:22.850Z,1011.51
2016-04-18T00:34:38.628Z,1011.21
2016-04-18T00:37:45.561Z,1011.21
2016-04-18T00:40:48.277Z,1011.47
2016-04-18T00:44:00.053Z,1011.59
2016-04-18T00:47:11.983Z,1011.68
2016-04-18T00:50:23.851Z,1011.68
2016-04-18T00:53:39.249Z,1011.68
2016-04-18T00:56:45.977Z,1011.82
2016-04-18T00:59:48.738Z,1011.92
2016-04-18T01:03:00.573Z,1011.98
2016-04-18T01:06:12.394Z,1011.9
2016-04-18T01:09:24.151Z,1011.96
2016-04-18T01:12:37.551Z,1011.92
2016-04-18T01:15:44.261Z,1012.04
2016-04-18T01:18:47.003Z,1012
2016-04-18T01:21:57.453Z,1012.06
2016-04-18T01:25:10.273Z,1012.14
2016-04-18T01:28:21.703Z,1012.28
2016-04-18T01:31:37.274Z,1012.22
2016-04-18T01:34:43.860Z,1012.26
2016-04-18T01:37:46.618Z,1012.36
2016-04-18T01:40:58.270Z,1012.4
2016-04-18T01:44:09.856Z,1012.4
2016-04-18T01:47:21.551Z,1012.44
2016-04-18T01:50:36.527Z,1012.44
2016-04-18T01:53:43.005Z,1012.34
2016-04-18T01:56:45.950Z,1012.38
2016-04-18T01:59:57.616Z,1012.4
2016-04-18T02:03:09.203Z,1012.46
2016-04-18T02:06:20.664Z,1012.44
2016-04-18T02:09:31.954Z,1012.46
2016-04-18T02:12:43.649Z,1012.52
2016-04-18T02:15:55.426Z,1012.52
2016-04-18T02:19:06.981Z,1012.44
2016-04-18T02:22:18.676Z,1012.3
2016-04-18T02:25:30.558Z,1012.44
2016-04-18T02:28:42.333Z,1012.36
2016-04-18T02:31:54.047Z,1012.6
2016-04-18T02:35:05.758Z,1012.62
2016-04-18T02:38:17.484Z,1012.64
2016-04-18T02:41:28.993Z,1012.68
2016-04-18T02:44:44.328Z,1012.72
2016-04-18T02:47:47.259Z,1012.68
2016-04-18T02:50:58.254Z,1012.68
2016-04-18T02:54:08.841Z,1012.66
2016-04-18T02:57:21.583Z,1012.74
2016-04-18T03:00:37.418Z,1012.8
2016-04-18T03:03:44.224Z,1012.82
2016-04-18T03:06:47.044Z,1012.84
2016-04-18T03:09:58.962Z,1012.9
2016-04-18T03:13:08.735Z,1012.92
2016-04-18T03:16:20.650Z,1013
2016-04-18T03:19:36.189Z,1013.02
2016-04-18T03:22:42.822Z,1013.02
2016-04-18T03:25:45.533Z,1013
2016-04-18T03:28:57.121Z,1013.04
2016-04-18T03:32:08.880Z,1013
2016-04-18T03:35:20.404Z,1013.07
2016-04-18T03:38:32.177Z,1013
2016-04-18T03:41:43.576Z,1013.09
2016-04-18T03:44:55.149Z,1013.06
2016-04-18T03:48:07.017Z,1013.04
2016-04-18T03:51:19.369Z,1013.11
2016-04-18T03:54:31.048Z,1013.07
2016-04-18T03:57:42.713Z,1013.02
2016-04-18T04:00:54.630Z,1013.04
2016-04-18T04:04:06.294Z,1013.09
2016-04-18T04:07:17.427Z,1013.04
2016-04-18T04:10:28.982Z,1013.06
2016-04-18T04:13:44.803Z,1013.07
2016-04-18T04:16:47.561Z,1013.15
2016-04-18T04:19:59.556Z,1013.21
2016-04-18T04:23:11.486Z,1013.19
2016-04-18T04:26:23.431Z,1013.21
2016-04-18T04:29:39.081Z,1013.31
2016-04-18T04:32:45.854Z,1013.19
2016-04-18T04:35:48.674Z,1013.19
2016-04-18T04:39:00.294Z,1013.27
2016-04-18T04:42:12.193Z,1013.29
2016-04-18T04:45:23.920Z,1013.21
2016-04-18T04:48:39.771Z,1013.25
2016-04-18T04:51:42.842Z,1013.31
2016-04-18T04:54:54.196Z,1013.35
2016-04-18T04:58:06.407Z,1013.37
2016-04-18T05:01:14.790Z,1013.29
2016-04-18T05:04:26.814Z,1013.43
2016-04-18T05:07:42.729Z,1013.43
2016-04-18T05:10:45.658Z,1013.45
2016-04-18T05:13:54.075Z,1013.45
2016-04-18T05:17:05.333Z,1013.49
2016-04-18T05:20:14.513Z,1013.55
2016-04-18T05:23:26.427Z,1013.61
2016-04-18T05:26:42.076Z,1013.61
2016-04-18T05:29:44.965Z,1013.59
2016-04-18T05:32:56.522Z,1013.61
2016-04-18T05:36:08.530Z,1013.51
2016-04-18T05:39:20.649Z,1013.67
2016-04-18T05:42:31.390Z,1013.55
2016-04-18T05:45:44.367Z,1013.59
2016-04-18T05:48:47.517Z,1013.65
2016-04-18T05:51:59.808Z,1013.63
2016-04-18T05:55:12.348Z,1013.57
2016-04-18T05:58:24.825Z,1013.61
2016-04-18T06:01:40.785Z,1013.71
2016-04-18T06:04:44.075Z,1013.57
2016-04-18T06:07:56.085Z,1013.51
2016-04-18T06:11:07.484Z,1013.51
2016-04-18T06:14:20.618Z,1013.35
2016-04-18T06:17:38.219Z,1013.37
2016-04-18T06:20:42.884Z,1013.31
2016-04-18T06:23:56.284Z,1013.29
2016-04-18T06:27:09.575Z,1013.25
2016-04-18T06:30:23.348Z,1013.33
2016-04-18T06:33:40.808Z,1013.25
2016-04-18T06:36:45.489Z,1013.25
2016-04-18T06:39:56.000Z,1013.07
2016-04-18T06:43:09.649Z,1013.11
2016-04-18T06:46:23.297Z,1013.13
2016-04-18T06:49:41.149Z,1013.11
2016-04-18T06:52:46.454Z,1013.02
2016-04-18T06:56:00.637Z,1012.98
2016-04-18T06:59:14.222Z,1012.92
2016-04-18T07:02:24.636Z,1012.76
2016-04-18T07:05:42.519Z,1012.7
2016-04-18T07:08:47.872Z,1012.74
2016-04-18T07:12:02.179Z,1012.64
2016-04-18T07:15:16.329Z,1012.66
2016-04-18T07:18:30.945Z,1012.56
2016-04-18T07:21:44.930Z,1012.56
2016-04-18T07:24:58.925Z,1012.54
2016-04-18T07:28:13.292Z,1012.56
2016-04-18T07:31:26.957Z,1012.58
2016-04-18T07:34:45.058Z,1012.5
2016-04-18T07:37:50.237Z,1012.56
2016-04-18T07:41:03.811Z,1012.6
2016-04-18T07:44:17.662Z,1012.6
2016-04-18T07:47:31.795Z,1012.78
2016-04-18T07:50:44.726Z,1012.5
2016-04-18T07:53:57.596Z,1013.31
2016-04-18T07:57:12.260Z,1013.37
2016-04-18T08:00:26.174Z,1013.45
2016-04-18T08:03:43.683Z,1013.55
2016-04-18T08:06:48.331Z,1013.57
2016-04-18T08:10:01.904Z,1013.45
2016-04-18T08:13:14.694Z,1013.75
2016-04-18T08:16:28.186Z,1013.85
2016-04-18T08:19:44.991Z,1013.81
2016-04-18T08:22:50.406Z,1013.79
2016-04-18T08:26:04.635Z,1012.14
2016-04-18T08:29:18.705Z,1012.9
2016-04-18T08:32:32.042Z,1013.15
2016-04-18T08:35:46.315Z,1013.55
2016-04-18T08:38:59.671Z,1012.08
2016-04-18T08:42:13.459Z,1011.94
2016-04-18T08:45:27.515Z,1013.49
2016-04-18T08:48:45.428Z,1011.84
2016-04-18T08:51:50.406Z,1013.23
2016-04-18T08:55:03.558Z,1013.73
2016-04-18T08:58:16.330Z,1013.35
2016-04-18T09:01:29.417Z,1013.71
2016-04-18T09:04:46.331Z,1013.87
2016-04-18T09:07:50.621Z,1013.89
2016-04-18T09:11:01.959Z,1013.69
2016-04-18T09:14:15.452Z,1013.75
2016-04-18T09:17:29.100Z,1013.51
2016-04-18T09:20:42.843Z,1013.11
2016-04-18T09:23:56.413Z,1013.71
2016-04-18T09:27:09.345Z,1012.12
2016-04-18T09:30:23.447Z,1012.12
2016-04-18T09:33:40.865Z,1013.33
2016-04-18T09:36:45.388Z,1013.69
2016-04-18T09:39:58.151Z,1013.75
2016-04-18T09:43:10.886Z,1013.77
2016-04-18T09:46:23.239Z,1013.06
2016-04-18T09:49:40.107Z,1011.96
2016-04-18T09:52:45.271Z,1013.47
2016-04-18T09:55:58.107Z,1012.56
2016-04-18T09:59:11.259Z,1013.27
2016-04-18T10:02:22.173Z,1013.21
2016-04-18T10:05:39.056Z,1013.35
2016-04-18T10:08:43.173Z,1013.39
2016-04-18T10:11:56.009Z,1013.45
2016-04-18T10:15:08.320Z,1013.51
2016-04-18T10:18:20.875Z,1013.55
2016-04-18T10:21:37.274Z,1013.51
2016-04-18T10:24:45.126Z,1013.63
2016-04-18T10:27:49.040Z,1013.51
2016-04-18T10:31:01.566Z,1013.55
2016-04-18T10:34:14.356Z,1013.59
2016-04-18T10:37:27.114Z,1013.47
2016-04-18T10:40:43.810Z,1013.57
2016-04-18T10:43:47.770Z,1013.59
2016-04-18T10:47:00.482Z,1013.51
2016-04-18T10:50:11.072Z,1013.49
2016-04-18T10:53:21.532Z,1013.51
2016-04-18T10:56:38.665Z,1013.45
2016-04-18T10:59:45.517Z,1013.45
2016-04-18T11:02:49.321Z,1013.41
2016-04-18T11:06:02.001Z,1013.43
2016-04-18T11:09:14.825Z,1013.31
2016-04-18T11:12:25.458Z,1013.29
2016-04-18T11:15:42.920Z,1013.25
2016-04-18T11:18:45.880Z,1013.19
2016-04-18T11:21:58.607Z,1013.19
2016-04-18T11:25:10.665Z,1013.25
2016-04-18T11:28:21.095Z,1013.19
2016-04-18T11:31:37.634Z,1013.23
2016-04-18T11:34:45.533Z,1013.23
2016-04-18T11:37:49.415Z,1013.23
2016-04-18T11:40:58.924Z,1013.19
2016-04-18T11:44:11.466Z,1013.27
2016-04-18T11:47:24.020Z,1013.27
2016-04-18T11:50:40.450Z,1013.17
2016-04-18T11:53:44.412Z,1013.11
2016-04-18T11:56:56.967Z,1013.29
2016-04-18T12:00:09.290Z,1013.25
2016-04-18T12:03:21.642Z,1013.19
2016-04-18T12:06:38.071Z,1013.25
2016-04-18T12:09:45.893Z,1013.25
2016-04-18T12:12:49.760Z,1013.13
2016-04-18T12:16:02.345Z,1013.23
2016-04-18T12:19:15.044Z,1013.25
2016-04-18T12:22:27.724Z,1013.25
2016-04-18T12:25:44.279Z,1013.15
2016-04-18T12:28:48.131Z,1013.19
2016-04-18T12:32:00.561Z,1013.35
2016-04-18T12:35:12.869Z,1013.23
2016-04-18T12:38:25.299Z,1013.21
2016-04-18T12:41:41.807Z,1013.25
2016-04-18T12:44:45.456Z,1013.17
2016-04-18T12:47:57.729Z,1013.17
2016-04-18T12:51:08.162Z,1013.15
2016-04-18T12:54:20.169Z,1013.06
2016-04-18T12:57:32.443Z,1013.09
2016-04-18T13:00:44.107Z,1013.11
2016-04-18T13:03:56.413Z,1013.07
2016-04-18T13:07:08.971Z,1013.07
2016-04-18T13:10:21.119Z,1013.07
2016-04-18T13:13:30.784Z,1013.09
2016-04-18T13:16:43.104Z,1013.06
2016-04-18T13:19:58.597Z,1013.06
2016-04-18T13:23:08.075Z,1012.88
2016-04-18T13:26:20.303Z,1013
2016-04-18T13:29:31.530Z,1012.92
2016-04-18T13:32:44.818Z,1013.02
2016-04-18T13:35:57.311Z,1013.02
2016-04-18T13:39:09.916Z,1012.96
2016-04-18T13:42:22.439Z,1013.09
2016-04-18T13:45:38.323Z,1013.06
2016-04-18T13:48:45.956Z,1013.04
2016-04-18T13:51:49.776Z,1013.02
2016-04-18T13:55:02.300Z,1013.11
2016-04-18T13:58:14.670Z,1013
2016-04-18T14:01:27.490Z,1013.04
2016-04-18T14:04:44.014Z,1013
2016-04-18T14:07:47.772Z,1012.9
2016-04-18T14:11:00.359Z,1012.84
2016-04-18T14:14:12.979Z,1012.88
2016-04-18T14:17:25.627Z,1012.94
2016-04-18T14:20:42.150Z,1012.94
2016-04-18T14:23:45.753Z,1012.9
2016-04-18T14:26:58.402Z,1012.88
2016-04-18T14:30:11.162Z,1012.86
2016-04-18T14:33:23.577Z,1012.74
2016-04-18T14:36:40.132Z,1012.74
2016-04-18T14:39:43.890Z,1012.7
2016-04-18T14:42:56.554Z,1012.8
2016-04-18T14:46:09.315Z,1012.84
2016-04-18T14:49:22.120Z,1012.86
2016-04-18T14:52:38.643Z,1012.78
2016-04-18T14:55:46.480Z,1012.76
2016-04-18T14:58:50.191Z,1012.8
2016-04-18T15:02:02.371Z,1012.78
2016-04-18T15:05:14.288Z,1012.78
2016-04-18T15:08:24.983Z,1012.78
2016-04-18T15:11:41.382Z,1012.8
2016-04-18T15:14:45.265Z,1012.8
2016-04-18T15:17:58.085Z,1012.82
2016-04-18T15:21:10.675Z,1012.78
2016-04-18T15:24:23.402Z,1012.74
2016-04-18T15:27:39.848Z,1012.82
2016-04-18T15:30:43.621Z,1012.78
2016-04-18T15:33:56.255Z,1012.76
2016-04-18T15:37:08.966Z,1012.72
2016-04-18T15:40:19.649Z,1012.72
2016-04-18T15:43:32.220Z,1012.8
2016-04-18T15:46:45.198Z,1012.74
2016-04-18T15:49:47.924Z,1012.78
2016-04-18T15:53:01.478Z,1012.74
2016-04-18T15:56:14.021Z,1012.8
2016-04-18T15:59:26.467Z,1012.7
2016-04-18T16:02:41.084Z,1012.84
2016-04-18T16:05:45.030Z,1012.82
2016-04-18T16:08:57.367Z,1012.74
2016-04-18T16:12:09.907Z,1012.72
2016-04-18T16:15:21.232Z,1012.7
2016-04-18T16:18:37.849Z,1012.76
2016-04-18T16:21:45.497Z,1012.64
2016-04-18T16:24:49.224Z,1012.74
2016-04-18T16:28:01.404Z,1012.64
2016-04-18T16:31:13.539Z,1012.8
2016-04-18T16:34:25.891Z,1012.74
2016-04-18T16:37:42.150Z,1012.74
2016-04-18T16:40:45.830Z,1012.8
2016-04-18T16:43:57.354Z,1012.78
2016-04-18T16:47:09.064Z,1012.72
2016-04-18T16:50:21.206Z,1012.78
2016-04-18T16:53:37.510Z,1012.72
2016-04-18T16:56:45.283Z,1012.84
2016-04-18T16:59:49.072Z,1012.86
2016-04-18T17:03:01.597Z,1012.82
2016-04-18T17:06:14.091Z,1012.84
2016-04-18T17:09:26.913Z,1012.9
2016-04-18T17:12:43.717Z,1012.98
2016-04-18T17:15:47.507Z,1012.94
2016-04-18T17:19:00.155Z,1012.94
2016-04-18T17:22:12.663Z,1012.9
2016-04-18T17:25:25.080Z,1012.94
2016-04-18T17:28:41.495Z,1012.94
2016-04-18T17:31:45.050Z,1012.88
2016-04-18T17:34:57.291Z,1013
2016-04-18T17:38:09.784Z,1012.86
2016-04-18T17:41:22.295Z,1012.88
2016-04-18T17:44:38.585Z,1012.98
2016-04-18T17:47:46.249Z,1012.88
2016-04-18T17:50:50.023Z,1012.9
2016-04-18T17:54:02.592Z,1012.82
2016-04-18T17:57:12.445Z,1012.92
2016-04-18T18:00:23.034Z,1012.94
2016-04-18T18:03:33.151Z,1013.02
2016-04-18T18:06:45.800Z,1013.02
2016-04-18T18:09:58.449Z,1013.02
2016-04-18T18:13:11.082Z,1013.02
2016-04-18T18:16:23.467Z,1013.06
2016-04-18T18:19:39.600Z,1013.11
2016-04-18T18:22:47.436Z,1013.11
2016-04-18T18:25:50.992Z,1013.07
2016-04-18T18:29:03.672Z,1013.13
2016-04-18T18:32:16.404Z,1013.19
2016-04-18T18:35:28.906Z,1013.15
2016-04-18T18:38:45.521Z,1013.21
2016-04-18T18:41:49.328Z,1013.15
2016-04-18T18:45:01.950Z,1013.17
2016-04-18T18:48:14.386Z,1013.25
2016-04-18T18:51:26.994Z,1013.35
2016-04-18T18:54:43.518Z,1013.33
2016-04-18T18:57:47.340Z,1013.39
2016-04-18T19:00:59.832Z,1013.45
2016-04-18T19:04:09.996Z,1013.35
2016-04-18T19:07:22.445Z,1013.43
2016-04-18T19:10:38.937Z,1013.39
2016-04-18T19:13:46.523Z,1013.39
2016-04-18T19:16:50.109Z,1013.47
